Islamabad Weather



Islamabad's Current Weather

Temprature 10.29o haze

haze

Rain: 0 %

Min Temprature10o
Max Temprature10.56o
Humidity87
Wind Speed3.6 m/h
Sun Rise07:02:41
Sun Set16:59:57
Current Time: 12-Dec-2019 01:29:49
Lat/Lon: 33.69, 73.06




Islamabad's Geo Location



Islamabad's Weather Forecast

Time Overall Temp Min Temp Max Temp Humidity Wind Speed Rain
12-Dec-2019 (Thu)
02:00:00 overcast clouds 9.180 9.180 10.690 60 0.95 m/h 0 %
05:00:00 overcast clouds 10.690 10.690 11.820 55 1.54 m/h 0 %
08:00:00 overcast clouds 11.350 11.350 12.110 55 1.65 m/h 0 %
11:00:00 overcast clouds 16.230 16.230 16.610 37 2.15 m/h 0 %
14:00:00 overcast clouds 17.850 17.850 17.850 34 2.84 m/h 0 %
17:00:00 overcast clouds 14.600 14.600 14.600 45 1.8 m/h 0 %
20:00:00 light rain 10.130 10.130 10.130 84 2.55 m/h 250 %
23:00:00 moderate rain 10.260 10.260 10.260 86 2.43 m/h 488 %
13-Dec-2019 (Fri)
02:00:00 moderate rain 10.270 10.270 10.270 87 1.72 m/h 500 %
05:00:00 light rain 10.550 10.550 10.550 82 2.49 m/h 269 %
08:00:00 light rain 11.030 11.030 11.030 78 1.07 m/h 13 %
11:00:00 light rain 13.060 13.060 13.060 65 0.77 m/h 13 %
14:00:00 light rain 14.030 14.030 14.030 60 0.28 m/h 31 %
17:00:00 light rain 12.950 12.950 12.950 70 0.84 m/h 56 %
20:00:00 light rain 12.100 12.100 12.100 76 2.35 m/h 31 %
23:00:00 light rain 10.470 10.470 10.470 83 1.83 m/h 6 %
14-Dec-2019 (Sat)
02:00:00 broken clouds 10.930 10.930 10.930 79 1.25 m/h 0 %
05:00:00 scattered clouds 9.490 9.490 9.490 85 1.19 m/h 0 %
08:00:00 clear sky 10.150 10.150 10.150 82 1.62 m/h 0 %
11:00:00 light rain 14.080 14.080 14.080 65 2.31 m/h 225 %
14:00:00 moderate rain 15.040 15.040 15.040 58 2.36 m/h 394 %
17:00:00 light rain 12.630 12.630 12.630 68 0.72 m/h 162 %
20:00:00 clear sky 11.300 11.300 11.300 73 0.79 m/h 0 %
23:00:00 clear sky 10.540 10.540 10.540 72 1.17 m/h 0 %
15-Dec-2019 (Sun)
02:00:00 clear sky 9.460 9.460 9.460 73 1.14 m/h 0 %
05:00:00 clear sky 8.900 8.900 8.900 72 1.37 m/h 0 %
08:00:00 clear sky 9.520 9.520 9.520 68 1.61 m/h 0 %
11:00:00 clear sky 14.760 14.760 14.760 47 2.56 m/h 0 %
14:00:00 clear sky 17.000 17.000 17.000 39 2.87 m/h 0 %
17:00:00 clear sky 13.560 13.560 13.560 51 3.4 m/h 0 %
20:00:00 clear sky 11.710 11.710 11.710 53 2.05 m/h 0 %
23:00:00 clear sky 10.300 10.300 10.300 59 1.38 m/h 0 %
16-Dec-2019 (Mon)
02:00:00 clear sky 9.190 9.190 9.190 59 1.37 m/h 0 %
05:00:00 clear sky 8.160 8.160 8.160 59 0.83 m/h 0 %
08:00:00 clear sky 9.170 9.170 9.170 53 1.43 m/h 0 %
11:00:00 clear sky 14.350 14.350 14.350 33 1.48 m/h 0 %
14:00:00 clear sky 17.090 17.090 17.090 28 3.05 m/h 0 %
17:00:00 clear sky 13.370 13.370 13.370 36 3.85 m/h 0 %
20:00:00 clear sky 12.110 12.110 12.110 35 3.4 m/h 0 %
23:00:00 clear sky 10.600 10.600 10.600 41 1.96 m/h 0 %


Islamabad's Tourist Spots

Historical Places in Islamabad

Famous Cities (61)